Time;durP1;ratioP1;P1;durP2;ratioP2;P2;SDS_P1;SDS_P2;PMS_P1;PMS_P2;Temp;Humidity;BMP_temperature;BMP_pressure;BME280_temperature;BME280_humidity;BME280_pressure;Samples;Min_cycle;Max_cycle;Signal;HPM_P1;HPM_P2
2021/12/04 00:01:18;;;;;;;;;;;;;;;9.60;54.02;99013.59;4968436;28;7381;-75
2021/12/04 00:03:44;;;;;;;;;;;;;;;9.60;54.76;99008.47;4967224;28;7291;-75
2021/12/04 00:06:36;;;;;;;;;;;;;;;9.61;54.63;99010.25;4967208;28;6829;-75
2021/12/04 00:09:04;;;;;;;;;;;;;;;9.61;54.71;99009.38;4956948;28;7020;-75
2021/12/04 00:11:31;;;;;;;;;;;;;;;9.61;53.70;98997.47;4968456;28;8364;-75
2021/12/04 00:13:56;;;;;;;;;;;;;;;9.62;54.80;99000.88;4968040;28;7171;-75
2021/12/04 00:16:22;;;;;;;;;;;;;;;9.61;53.96;98994.03;4968056;28;6875;-75
2021/12/04 00:18:49;;;;;;;;;;;;;;;9.61;54.51;98983.78;4971303;28;6904;-75
2021/12/04 00:21:14;;;;;;;;;;;;;;;9.59;54.88;98979.50;4953437;28;6819;-75
2021/12/04 00:23:40;;;;;;;;;;;;;;;9.61;54.69;98983.78;4968326;28;7184;-75
2021/12/04 00:26:06;;;;;;;;;;;;;;;9.61;53.77;98977.00;4951509;28;6994;-75
2021/12/04 00:28:32;;;;;;;;;;;;;;;9.60;54.51;98982.91;4972268;28;6796;-75
2021/12/04 00:30:58;;;;;;;;;;;;;;;9.61;54.76;98971.88;4954716;28;7180;-75
2021/12/04 00:33:29;;;;;;;;;;;;;;;9.61;54.41;98968.44;4957212;28;7026;-75
2021/12/04 00:36:01;;;;;;;;;;;;;;;9.61;54.72;98969.31;4959248;28;6816;-75
2021/12/04 00:51:46;;;;;;;;;;;;;;;9.19;55.46;98950.19;4973130;28;7220;-75
2021/12/04 00:54:12;;;;;;;;;;;;;;;9.13;55.54;98947.44;4969160;28;8493;-75
2021/12/04 00:56:43;;;;;;;;;;;;;;;9.09;55.91;98943.06;4941797;28;7247;-75
2021/12/04 00:59:12;;;;;;;;;;;;;;;9.03;55.55;98938.63;4972283;28;6831;-75
2021/12/04 01:01:40;;;;;;;;;;;;;;;8.98;56.79;98930.84;4972806;28;7160;-75
2021/12/04 01:04:12;;;;;;;;;;;;;;;8.93;56.15;98916.16;4972955;28;7014;-75
2021/12/04 01:06:38;;;;;;;;;;;;;;;8.87;56.89;98916.81;4975459;28;7904;-75
2021/12/04 01:09:11;;;;;;;;;;;;;;;8.81;57.35;98909.00;4974798;28;7135;-75
2021/12/04 01:11:41;;;;;;;;;;;;;;;8.77;56.94;98902.03;4959929;28;7103;-74
2021/12/04 01:14:08;;;;;;;;;;;;;;;8.72;57.04;98900.22;4974864;28;7210;-74
2021/12/04 01:16:34;;;;;;;;;;;;;;;8.70;58.27;98908.66;4973127;28;6816;-75
2021/12/04 01:19:00;;;;;;;;;;;;;;;8.67;58.14;98898.34;4993402;28;6950;-75
2021/12/04 01:21:25;;;;;;;;;;;;;;;8.64;58.04;98908.44;4959486;28;6984;-74
2021/12/04 01:23:51;;;;;;;;;;;;;;;8.63;58.93;98897.38;4978584;28;7368;-74
2021/12/04 01:26:17;;;;;;;;;;;;;;;8.64;58.64;98903.34;4976456;28;6886;-74
2021/12/04 01:28:43;;;;;;;;;;;;;;;8.64;58.86;98894.00;4976464;28;6784;-74
2021/12/04 01:31:08;;;;;;;;;;;;;;;8.64;58.42;98891.44;4976810;28;7475;-74
2021/12/04 01:33:34;;;;;;;;;;;;;;;8.65;58.07;98892.31;4976415;28;6911;-74
2021/12/04 01:35:59;;;;;;;;;;;;;;;8.65;59.21;98889.78;4959850;28;7309;-74
2021/12/04 01:38:25;;;;;;;;;;;;;;;8.66;59.56;98896.59;4959263;28;7216;-74
2021/12/04 01:40:51;;;;;;;;;;;;;;;8.67;58.98;98894.09;4975518;28;6784;-74
2021/12/04 01:43:17;;;;;;;;;;;;;;;8.67;58.86;98886.41;4960717;28;7254;-74
2021/12/04 01:45:42;;;;;;;;;;;;;;;8.68;59.34;98888.16;4957280;28;6983;-75
2021/12/04 01:48:08;;;;;;;;;;;;;;;8.68;58.61;98883.03;4977073;28;6878;-75
2021/12/04 01:50:35;;;;;;;;;;;;;;;8.69;58.87;98882.25;4975341;28;6780;-75
2021/12/04 01:53:03;;;;;;;;;;;;;;;8.69;59.70;98879.69;4976873;28;6904;-75
2021/12/04 01:55:33;;;;;;;;;;;;;;;8.70;58.75;98878.00;4958649;28;7187;-75
2021/12/04 01:58:01;;;;;;;;;;;;;;;8.70;58.89;98878.88;4975700;28;6894;-75
2021/12/04 02:00:38;;;;;;;;;;;;;;;8.72;59.56;98887.44;4977159;28;6800;-75
2021/12/04 02:03:07;;;;;;;;;;;;;;;8.72;60.06;98878.91;4978360;28;6811;-75
2021/12/04 02:05:34;;;;;;;;;;;;;;;8.75;59.06;98884.13;4977274;28;6827;-75
2021/12/04 02:08:00;;;;;;;;;;;;;;;8.77;58.83;98879.03;4975208;28;7412;-75
2021/12/04 02:10:26;;;;;;;;;;;;;;;8.78;59.76;98878.22;4975644;28;6949;-75
2021/12/04 02:12:51;;;;;;;;;;;;;;;8.78;59.57;98871.44;4975525;28;6827;-75
2021/12/04 02:15:17;;;;;;;;;;;;;;;8.81;59.00;98878.34;4975356;28;6795;-74
2021/12/04 02:17:48;;;;;;;;;;;;;;;8.85;60.02;98875.03;4973317;28;6968;-74
2021/12/04 02:20:24;;;;;;;;;;;;;;;8.90;58.78;98876.06;4971081;28;7152;-75
2021/12/04 02:22:51;;;;;;;;;;;;;;;8.93;59.70;98868.47;4970367;28;7295;-75
2021/12/04 02:25:17;;;;;;;;;;;;;;;8.95;59.69;98864.28;4970764;28;6804;-74
2021/12/04 02:27:44;;;;;;;;;;;;;;;8.99;60.04;98868.66;4955007;28;6987;-75
2021/12/04 02:30:17;;;;;;;;;;;;;;;9.03;60.07;98867.94;4972997;28;6895;-75
2021/12/04 02:32:43;;;;;;;;;;;;;;;9.09;59.63;98862.13;4966466;28;7137;-75
2021/12/04 02:35:12;;;;;;;;;;;;;;;9.12;59.28;98856.25;4969849;28;6796;-75
2021/12/04 02:37:40;;;;;;;;;;;;;;;9.14;59.47;98855.47;4968804;28;6811;-75
2021/12/04 02:40:10;;;;;;;;;;;;;;;9.15;60.16;98853.75;4969015;28;6828;-75
2021/12/04 02:42:37;;;;;;;;;;;;;;;9.15;58.72;98849.53;4968323;28;7019;-75
2021/12/04 02:45:08;;;;;;;;;;;;;;;9.14;59.29;98839.25;4977150;28;7141;-75
2021/12/04 02:47:34;;;;;;;;;;;;;;;9.14;59.26;98841.81;4968530;28;6816;-75
2021/12/04 02:50:04;;;;;;;;;;;;;;;9.15;59.79;98838.44;4947597;28;7407;-75
2021/12/04 02:52:31;;;;;;;;;;;;;;;9.14;59.98;98839.25;4971782;28;6820;-75
2021/12/04 02:54:58;;;;;;;;;;;;;;;9.13;59.12;98840.09;4970139;28;8043;-75
2021/12/04 02:57:24;;;;;;;;;;;;;;;9.11;58.63;98834.06;4967430;28;7234;-75
2021/12/04 02:59:50;;;;;;;;;;;;;;;9.09;58.50;98834.00;4965525;28;6792;-74
2021/12/04 03:02:20;;;;;;;;;;;;;;;9.07;59.76;98827.13;4971711;28;6811;-74
2021/12/04 03:04:58;;;;;;;;;;;;;;;9.06;59.29;98817.72;4978509;28;6812;-74
2021/12/04 03:07:25;;;;;;;;;;;;;;;9.05;59.08;98823.66;4969678;28;6816;-74
2021/12/04 03:09:51;;;;;;;;;;;;;;;9.05;60.33;98805.75;4969223;28;7850;-74
2021/12/04 03:12:20;;;;;;;;;;;;;;;9.07;59.66;98799.88;4967439;28;6792;-74
2021/12/04 03:14:46;;;;;;;;;;;;;;;9.10;60.11;98799.09;4969715;28;6820;-74
2021/12/04 03:17:14;;;;;;;;;;;;;;;9.10;59.67;98791.44;4967015;28;6792;-74
2021/12/04 03:19:40;;;;;;;;;;;;;;;9.09;59.57;98785.44;4938290;28;6974;-74
2021/12/04 03:22:07;;;;;;;;;;;;;;;9.10;59.33;98781.22;4955204;28;6808;-74
2021/12/04 03:24:37;;;;;;;;;;;;;;;9.09;60.05;98776.94;4964633;28;7430;-75
2021/12/04 03:27:03;;;;;;;;;;;;;;;9.07;59.11;98778.56;4967820;28;6903;-75
2021/12/04 03:29:30;;;;;;;;;;;;;;;9.05;59.40;98777.66;4969270;28;7145;-75
2021/12/04 03:42:41;;;;;;;;;;;;;;;8.97;59.52;98760.41;4970208;28;7256;-73
2021/12/04 03:45:09;;;;;;;;;;;;;;;8.97;59.28;98762.13;4951226;28;7006;-73
2021/12/04 03:47:40;;;;;;;;;;;;;;;8.95;59.58;98759.50;4969274;28;7059;-73
2021/12/04 03:50:07;;;;;;;;;;;;;;;8.95;60.28;98756.94;4968293;28;6899;-74
2021/12/04 03:52:33;;;;;;;;;;;;;;;8.96;60.87;98756.13;4969569;28;7190;-74
2021/12/04 03:54:59;;;;;;;;;;;;;;;8.95;60.42;98754.41;4969952;28;6926;-74
2021/12/04 03:57:24;;;;;;;;;;;;;;;8.95;59.95;98756.94;4968635;28;6879;-74
2021/12/04 03:59:50;;;;;;;;;;;;;;;8.96;60.11;98753.56;4957498;28;6788;-74
2021/12/04 04:02:17;;;;;;;;;;;;;;;8.97;59.95;98760.41;4972539;28;6808;-74
2021/12/04 04:04:44;;;;;;;;;;;;;;;8.98;60.57;98756.19;4972896;28;6804;-74
2021/12/04 04:07:09;;;;;;;;;;;;;;;8.99;60.10;98757.91;4974021;28;7303;-74
2021/12/04 04:09:36;;;;;;;;;;;;;;;9.00;59.80;98757.06;4975623;28;6796;-74
2021/12/04 04:12:02;;;;;;;;;;;;;;;9.00;59.69;98749.41;4941095;28;6967;-74
2021/12/04 04:14:28;;;;;;;;;;;;;;;9.01;60.34;98749.47;4974268;28;6953;-74
2021/12/04 04:16:56;;;;;;;;;;;;;;;9.02;60.81;98747.75;4972464;28;6804;-74
2021/12/04 04:19:25;;;;;;;;;;;;;;;9.03;61.05;98737.59;4983029;28;7156;-74
2021/12/04 04:21:58;;;;;;;;;;;;;;;9.03;59.75;98737.59;4978469;28;7236;-74
2021/12/04 04:24:27;;;;;;;;;;;;;;;9.05;59.79;98736.75;4977371;28;7077;-74
2021/12/04 04:26:54;;;;;;;;;;;;;;;9.05;60.28;98736.75;4972818;28;8083;-74
2021/12/04 04:29:20;;;;;;;;;;;;;;;9.03;59.87;98729.91;4972349;28;7217;-74
2021/12/04 04:31:47;;;;;;;;;;;;;;;9.05;60.17;98731.66;4974361;28;6804;-74
2021/12/04 04:34:23;;;;;;;;;;;;;;;9.06;59.80;98726.59;4972076;28;6816;-74
2021/12/04 04:58:49;;;;;;;;;;;;;;;9.23;61.13;98714.25;4974952;28;7110;-74
2021/12/04 05:12:22;;;;;;;;;;;;;;;9.28;59.73;98709.25;4960342;28;7448;-74
2021/12/04 05:14:54;;;;;;;;;;;;;;;9.28;59.77;98699.91;4971993;28;7209;-74
2021/12/04 05:17:41;;;;;;;;;;;;;;;9.26;60.31;98693.88;4975876;28;7222;-74
2021/12/04 05:20:08;;;;;;;;;;;;;;;9.25;59.78;98707.47;4975510;28;7090;-74
2021/12/04 05:22:34;;;;;;;;;;;;;;;9.24;60.35;98694.69;4972402;28;7113;-74
2021/12/04 05:25:00;;;;;;;;;;;;;;;9.23;59.85;98691.25;4964480;28;6788;-74
2021/12/04 05:27:25;;;;;;;;;;;;;;;9.21;60.61;98703.13;4979084;28;6803;-74
2021/12/04 05:29:51;;;;;;;;;;;;;;;9.22;60.28;98703.97;4975174;28;6874;-74
2021/12/04 05:32:17;;;;;;;;;;;;;;;9.18;60.53;98697.94;4972835;28;6796;-75
2021/12/04 05:34:43;;;;;;;;;;;;;;;9.13;59.76;98702.94;4976295;28;7179;-75
2021/12/04 05:37:09;;;;;;;;;;;;;;;9.11;60.50;98707.13;4976168;28;6956;-75
2021/12/04 05:39:35;;;;;;;;;;;;;;;9.11;60.48;98708.81;4975971;28;6780;-74
2021/12/04 05:42:01;;;;;;;;;;;;;;;9.09;60.24;98705.38;4970948;28;7148;-74
2021/12/04 05:44:29;;;;;;;;;;;;;;;9.09;60.29;98710.47;4957772;28;7390;-74
2021/12/04 05:47:01;;;;;;;;;;;;;;;9.08;60.37;98711.28;4975567;28;7019;-74
2021/12/04 05:57:11;;;;;;;;;;;;;;;9.06;59.90;98684.81;4975754;28;6900;-74
2021/12/04 05:59:37;;;;;;;;;;;;;;;9.03;60.16;98677.97;4959555;28;7162;-74
2021/12/04 06:02:03;;;;;;;;;;;;;;;8.98;60.09;98675.28;4976528;28;6819;-74
2021/12/04 06:04:30;;;;;;;;;;;;;;;8.93;60.06;98681.06;4976904;28;6891;-74
2021/12/04 06:06:56;;;;;;;;;;;;;;;8.89;59.85;98675.03;4975653;28;6887;-75
2021/12/04 06:09:22;;;;;;;;;;;;;;;8.85;61.09;98674.09;4961510;28;6949;-75
2021/12/04 06:11:48;;;;;;;;;;;;;;;8.82;60.18;98673.97;4971909;28;7109;-74
2021/12/04 06:14:14;;;;;;;;;;;;;;;8.82;60.36;98679.09;4973423;28;6907;-74
2021/12/04 06:16:40;;;;;;;;;;;;;;;8.82;60.74;98685.91;4977318;28;6808;-74
2021/12/04 06:19:12;;;;;;;;;;;;;;;8.82;60.47;98681.63;4976574;28;6796;-74
2021/12/04 06:24:23;;;;;;;;;;;;;;;8.83;61.16;98669.75;4976043;28;6884;-74
2021/12/04 06:26:49;;;;;;;;;;;;;;;8.85;60.12;98670.66;4976578;28;6952;-74
2021/12/04 06:29:14;;;;;;;;;;;;;;;8.89;60.93;98670.78;4975770;28;7228;-75
2021/12/04 06:31:40;;;;;;;;;;;;;;;8.90;60.57;98666.53;4964666;28;6831;-75
2021/12/04 06:34:06;;;;;;;;;;;;;;;8.92;61.13;98674.22;4975352;28;6852;-74
2021/12/04 06:36:32;;;;;;;;;;;;;;;8.92;61.17;98680.22;4975853;28;6975;-74
2021/12/04 06:38:57;;;;;;;;;;;;;;;8.91;60.94;98678.50;4977292;28;6880;-74
2021/12/04 06:41:23;;;;;;;;;;;;;;;8.91;61.37;98683.59;4976595;28;7137;-74
2021/12/04 06:43:51;;;;;;;;;;;;;;;8.93;60.37;98686.19;4975501;28;6780;-74
2021/12/04 06:46:21;;;;;;;;;;;;;;;8.95;61.27;98684.56;4960411;28;7256;-74
2021/12/04 06:49:02;;;;;;;;;;;;;;;8.97;60.30;98685.44;4976468;28;8428;-75
2021/12/04 06:51:34;;;;;;;;;;;;;;;8.98;60.15;98680.41;4958673;28;7161;-75
2021/12/04 06:54:18;;;;;;;;;;;;;;;8.99;60.30;98678.69;4974772;28;7418;-74
2021/12/04 06:56:45;;;;;;;;;;;;;;;9.01;60.54;98682.13;4987958;28;6979;-74
2021/12/04 06:59:14;;;;;;;;;;;;;;;9.01;60.99;98683.03;4972702;28;6967;-74
2021/12/04 07:01:41;;;;;;;;;;;;;;;9.02;60.35;98679.63;4974111;28;6824;-74
2021/12/04 07:04:08;;;;;;;;;;;;;;;9.03;61.14;98688.19;4974854;28;6824;-74
2021/12/04 07:06:34;;;;;;;;;;;;;;;9.03;60.81;98689.03;4969525;28;7035;-74
2021/12/04 07:09:02;;;;;;;;;;;;;;;9.02;61.05;98697.53;4972837;28;7237;-74
2021/12/04 07:11:28;;;;;;;;;;;;;;;9.04;61.40;98697.56;4970120;28;6808;-74
2021/12/04 07:13:55;;;;;;;;;;;;;;;9.05;60.47;98690.75;4974717;28;6946;-74
2021/12/04 07:16:22;;;;;;;;;;;;;;;9.05;60.53;98686.53;4971501;28;7028;-74
2021/12/04 07:18:47;;;;;;;;;;;;;;;9.07;60.98;98695.09;4954439;28;8075;-74
2021/12/04 07:21:15;;;;;;;;;;;;;;;9.07;61.07;98689.97;4973623;28;7193;-74
2021/12/04 07:23:40;;;;;;;;;;;;;;;9.07;60.31;98686.56;4972802;28;7149;-74
2021/12/04 07:26:07;;;;;;;;;;;;;;;9.07;60.23;98684.00;4968987;28;6887;-74
2021/12/04 07:28:34;;;;;;;;;;;;;;;9.06;60.17;98685.69;4970858;28;6800;-74
2021/12/04 07:30:59;;;;;;;;;;;;;;;9.07;60.48;98681.44;4971150;28;6888;-74
2021/12/04 07:33:26;;;;;;;;;;;;;;;9.06;60.71;98683.16;4973539;28;6974;-74
2021/12/04 07:35:52;;;;;;;;;;;;;;;9.05;60.49;98683.97;4968863;28;7029;-74
2021/12/04 07:38:18;;;;;;;;;;;;;;;9.07;61.24;98681.44;4955089;28;7082;-74
2021/12/04 07:40:44;;;;;;;;;;;;;;;9.08;60.41;98685.72;4973906;28;6788;-75
2021/12/04 07:43:12;;;;;;;;;;;;;;;9.09;60.33;98682.38;4974946;28;6835;-75
2021/12/04 07:45:38;;;;;;;;;;;;;;;9.09;60.28;98687.47;4973185;28;7521;-74
2021/12/04 07:48:05;;;;;;;;;;;;;;;9.10;60.63;98684.94;4971227;28;7062;-74
2021/12/04 07:50:33;;;;;;;;;;;;;;;9.13;60.74;98686.72;4976285;28;6811;-74
2021/12/04 07:52:58;;;;;;;;;;;;;;;9.14;60.34;98685.88;4973802;28;6997;-74
2021/12/04 07:55:26;;;;;;;;;;;;;;;9.16;61.00;98676.56;4972467;28;6958;-74
2021/12/04 07:57:53;;;;;;;;;;;;;;;9.18;61.25;98680.06;4959395;28;7031;-74
2021/12/04 08:00:21;;;;;;;;;;;;;;;9.19;61.23;98679.22;4974220;28;6796;-74
2021/12/04 08:02:48;;;;;;;;;;;;;;;9.20;60.66;98680.94;4973870;28;6799;-74
2021/12/04 08:05:16;;;;;;;;;;;;;;;9.21;59.96;98675.00;4968831;28;6849;-74
2021/12/04 08:07:42;;;;;;;;;;;;;;;9.23;60.77;98670.78;4987825;28;6884;-74
2021/12/04 08:10:12;;;;;;;;;;;;;;;9.23;60.38;98670.78;4990240;28;6836;-74
2021/12/04 08:12:38;;;;;;;;;;;;;;;9.24;61.09;98661.44;4976420;28;6823;-74
2021/12/04 08:15:07;;;;;;;;;;;;;;;9.23;60.93;98660.56;4974735;28;6804;-74
2021/12/04 08:17:32;;;;;;;;;;;;;;;9.25;60.89;98648.69;4972901;28;6961;-74
2021/12/04 08:19:58;;;;;;;;;;;;;;;9.25;61.37;98648.69;4956313;28;8140;-74
2021/12/04 08:22:24;;;;;;;;;;;;;;;9.26;61.03;98658.06;4955909;28;6879;-75
2021/12/04 08:24:49;;;;;;;;;;;;;;;9.30;60.30;98662.47;4972255;28;7494;-75
2021/12/04 08:27:17;;;;;;;;;;;;;;;9.32;60.47;98670.19;4971771;28;7012;-75
2021/12/04 08:29:44;;;;;;;;;;;;;;;9.37;61.58;98667.75;4972058;28;6824;-75
2021/12/04 08:32:11;;;;;;;;;;;;;;;9.42;61.17;98663.59;4974763;28;7164;-74
2021/12/04 08:34:37;;;;;;;;;;;;;;;9.48;61.23;98662.88;4961826;28;6800;-74
2021/12/04 08:37:04;;;;;;;;;;;;;;;9.54;61.12;98669.00;4973666;28;7154;-74
2021/12/04 08:39:31;;;;;;;;;;;;;;;9.58;60.46;98652.91;4960206;28;7173;-74
2021/12/04 08:41:59;;;;;;;;;;;;;;;9.64;61.82;98651.31;4942189;28;6996;-74
2021/12/04 08:44:25;;;;;;;;;;;;;;;9.70;61.00;98656.59;4958281;28;7080;-74
2021/12/04 08:46:52;;;;;;;;;;;;;;;9.77;60.51;98649.91;4970888;28;6872;-74
2021/12/04 08:49:18;;;;;;;;;;;;;;;9.83;61.07;98647.50;4956699;28;7010;-74
2021/12/04 08:51:44;;;;;;;;;;;;;;;9.86;61.02;98643.31;4973012;28;6907;-74
2021/12/04 08:54:11;;;;;;;;;;;;;;;9.90;60.68;98639.16;4973177;28;7043;-74
2021/12/04 08:56:38;;;;;;;;;;;;;;;9.93;60.19;98631.53;4985803;28;6800;-75
2021/12/04 08:59:07;;;;;;;;;;;;;;;9.99;60.97;98633.34;4960956;28;6983;-74
2021/12/04 09:01:38;;;;;;;;;;;;;;;10.04;60.69;98631.75;4974884;28;6884;-74
2021/12/04 09:04:08;;;;;;;;;;;;;;;10.09;61.44;98622.47;4961495;28;7033;-74
2021/12/04 09:06:36;;;;;;;;;;;;;;;10.16;61.12;98617.50;4971075;28;7001;-74
2021/12/04 09:09:07;;;;;;;;;;;;;;;10.23;60.88;98616.78;4956783;28;7134;-75
2021/12/04 09:11:41;;;;;;;;;;;;;;;10.30;60.43;98618.63;4971413;28;7905;-74
2021/12/04 09:14:09;;;;;;;;;;;;;;;10.39;60.72;98608.56;4960614;28;7079;-74
2021/12/04 09:16:35;;;;;;;;;;;;;;;10.44;60.57;98602.72;4975331;28;7881;-74
2021/12/04 09:19:01;;;;;;;;;;;;;;;10.49;60.31;98599.44;4975533;28;7858;-74
2021/12/04 09:21:28;;;;;;;;;;;;;;;10.54;60.44;98602.06;4974397;28;7865;-75
2021/12/04 09:24:14;;;;;;;;;;;;;;;10.60;60.41;98591.91;4974681;28;6812;-75
2021/12/04 09:32:24;;;;;;;;;;;;;;;10.76;60.69;98597.34;4972245;28;7201;-74
2021/12/04 10:02:00;;;;;;;;;;;;;;;11.43;60.18;98555.72;4970952;28;6819;-75
2021/12/04 10:21:02;;;;;;;;;;;;;;;12.13;58.17;98535.25;4975847;28;7243;-74
2021/12/04 10:34:32;;;;;;;;;;;;;;;11.94;58.24;98532.44;4976278;28;7058;-74
2021/12/04 10:37:24;;;;;;;;;;;;;;;11.91;57.98;98522.16;4978123;28;7188;-74
2021/12/04 10:40:11;;;;;;;;;;;;;;;11.87;58.08;98517.78;4977413;28;7053;-74
2021/12/04 10:42:55;;;;;;;;;;;;;;;11.84;57.97;98505.81;4977881;28;7256;-74
2021/12/04 10:45:36;;;;;;;;;;;;;;;11.81;58.37;98504.06;4992840;28;7230;-75
2021/12/04 10:48:12;;;;;;;;;;;;;;;11.79;58.29;98494.59;4988878;28;7305;-74
2021/12/04 10:50:46;;;;;;;;;;;;;;;11.78;57.88;98493.75;4974163;28;6812;-74
2021/12/04 10:53:26;;;;;;;;;;;;;;;11.76;58.07;98476.63;4958486;28;6994;-74
2021/12/04 11:18:40;;;;;;;;;;;;;;;11.76;58.18;98415.03;4973015;28;6840;-74
2021/12/04 11:18:42;;;;;;;;;;;;;;;11.63;58.31;98429.41;4972987;28;6999;-75
2021/12/04 11:38:02;;;;;;;;;;;;;;;12.10;57.82;98379.44;4968094;28;6895;-74
2021/12/04 11:43:04;;;;;;;;;;;;;;;12.19;57.47;98374.41;4973290;28;6820;-74
2021/12/04 11:48:37;;;;;;;;;;;;;;;12.13;57.12;98363.22;4970191;28;6855;-74
2021/12/04 11:51:22;;;;;;;;;;;;;;;12.10;56.98;98368.34;4968726;28;6976;-74
2021/12/04 11:53:52;;;;;;;;;;;;;;;12.04;57.46;98361.44;4954150;28;7168;-74
2021/12/04 11:56:27;;;;;;;;;;;;;;;11.97;57.45;98357.03;4970971;28;6879;-74
2021/12/04 11:58:54;;;;;;;;;;;;;;;11.88;57.12;98356.09;4969302;28;7741;-75
2021/12/04 12:01:35;;;;;;;;;;;;;;;11.77;56.73;98352.56;4969197;28;8941;-75
2021/12/04 12:04:11;;;;;;;;;;;;;;;11.66;57.09;98353.31;4986457;28;7189;-75
2021/12/04 12:06:45;;;;;;;;;;;;;;;11.59;57.25;98350.66;4970937;28;7414;-75
2021/12/04 12:09:19;;;;;;;;;;;;;;;11.53;57.62;98348.88;4971588;28;6907;-75
2021/12/04 12:12:01;;;;;;;;;;;;;;;11.51;57.66;98353.16;4974348;28;6995;-75
2021/12/04 12:14:50;;;;;;;;;;;;;;;11.50;58.33;98354.88;4975817;28;8079;-75
2021/12/04 12:17:34;;;;;;;;;;;;;;;11.49;57.97;98350.59;4972010;28;6993;-75
2021/12/04 12:20:04;;;;;;;;;;;;;;;11.49;57.84;98345.47;4971601;28;6812;-75
2021/12/04 12:25:21;;;;;;;;;;;;;;;11.43;57.87;98355.63;4977192;28;7238;-75
2021/12/04 12:36:25;;;;;;;;;;;;;;;11.28;58.55;98388.78;4981505;28;7892;-75
2021/12/04 12:38:56;;;;;;;;;;;;;;;11.30;58.90;98392.22;4975322;28;6800;-75
2021/12/04 12:41:41;;;;;;;;;;;;;;;11.33;58.76;98389.72;4964488;28;7201;-75
2021/12/04 12:44:15;;;;;;;;;;;;;;;11.32;58.67;98377.72;4975252;28;7001;-75
2021/12/04 12:46:48;;;;;;;;;;;;;;;11.32;58.72;98381.16;4994946;28;6816;-75
2021/12/04 12:49:49;;;;;;;;;;;;;;;11.33;58.77;98379.44;4975693;28;6974;-75
2021/12/04 12:52:23;;;;;;;;;;;;;;;11.29;58.96;98373.41;4951620;28;7071;-75
2021/12/04 12:55:03;;;;;;;;;;;;;;;11.27;59.41;98369.09;4992034;28;7301;-75
2021/12/04 12:57:39;;;;;;;;;;;;;;;11.27;58.86;98366.53;4961967;28;7166;-75
2021/12/04 13:12:17;;;;;;;;;;;;;;;10.96;58.97;98338.78;4979609;28;7185;-75
2021/12/04 13:14:45;;;;;;;;;;;;;;;10.96;59.43;98339.66;4974471;28;6808;-75
2021/12/04 13:17:16;;;;;;;;;;;;;;;11.00;59.31;98343.13;4978766;28;7282;-75
2021/12/04 13:19:48;;;;;;;;;;;;;;;11.02;59.18;98344.00;4977717;28;6896;-75
2021/12/04 13:22:31;;;;;;;;;;;;;;;11.03;59.30;98350.00;4975565;28;7111;-75
2021/12/04 13:25:09;;;;;;;;;;;;;;;11.02;58.99;98348.28;4979986;28;6986;-75
2021/12/04 13:30:13;;;;;;;;;;;;;;;10.97;59.03;98346.50;4972133;28;7166;-75
2021/12/04 13:32:43;;;;;;;;;;;;;;;10.94;58.93;98349.03;4974842;28;6832;-75
2021/12/04 13:35:17;;;;;;;;;;;;;;;10.88;58.77;98356.66;4974680;28;6979;-75
2021/12/04 13:37:43;;;;;;;;;;;;;;;10.82;58.82;98356.56;4978438;28;7208;-75
2021/12/04 13:40:15;;;;;;;;;;;;;;;10.77;59.47;98363.31;4977907;28;7158;-75
2021/12/04 13:42:41;;;;;;;;;;;;;;;10.73;59.57;98364.97;4976825;28;7012;-75
2021/12/04 13:45:13;;;;;;;;;;;;;;;10.69;59.02;98365.78;4976998;28;7414;-75
2021/12/04 13:47:42;;;;;;;;;;;;;;;10.67;59.45;98370.00;4976372;28;7185;-75
2021/12/04 13:53:26;;;;;;;;;;;;;;;10.64;59.42;98386.22;4978022;28;7217;-75
2021/12/04 13:56:04;;;;;;;;;;;;;;;10.64;59.78;98393.91;4977317;28;7212;-75
2021/12/04 13:58:30;;;;;;;;;;;;;;;10.61;60.03;98396.38;4977066;28;7921;-75
2021/12/04 14:01:00;;;;;;;;;;;;;;;10.59;59.49;98392.09;4976606;28;7063;-75
2021/12/04 14:03:31;;;;;;;;;;;;;;;10.52;59.95;98393.69;4977638;28;6976;-75
2021/12/04 14:05:58;;;;;;;;;;;;;;;10.47;59.86;98413.25;4974902;28;6823;-75
2021/12/04 14:08:24;;;;;;;;;;;;;;;10.42;60.23;98414.00;4967468;28;6804;-75
2021/12/04 14:10:51;;;;;;;;;;;;;;;10.37;60.21;98415.63;4972817;28;6860;-75
2021/12/04 14:13:24;;;;;;;;;;;;;;;10.35;60.31;98416.41;4975804;28;7352;-76
2021/12/04 14:15:55;;;;;;;;;;;;;;;10.26;60.84;98418.00;4976667;28;6991;-76
2021/12/04 14:18:26;;;;;;;;;;;;;;;10.21;60.68;98418.75;4975675;28;6820;-76
2021/12/04 14:21:01;;;;;;;;;;;;;;;10.16;60.78;98412.69;4966876;28;6995;-76
2021/12/04 14:23:31;;;;;;;;;;;;;;;10.15;61.27;98414.38;4973318;28;7537;-75
2021/12/04 14:26:02;;;;;;;;;;;;;;;10.16;60.70;98421.22;4939978;28;8374;-75
2021/12/04 14:28:38;;;;;;;;;;;;;;;10.14;60.45;98422.91;4972708;28;6840;-75
2021/12/04 14:31:04;;;;;;;;;;;;;;;10.09;60.91;98430.50;4972140;28;7218;-75
2021/12/04 14:33:30;;;;;;;;;;;;;;;10.04;60.06;98437.22;4971207;28;6879;-75
2021/12/04 14:35:55;;;;;;;;;;;;;;;9.93;60.65;98428.47;4972149;28;6788;-75
2021/12/04 14:38:27;;;;;;;;;;;;;;;9.82;60.31;98431.69;4952201;28;6967;-75
2021/12/04 14:41:05;;;;;;;;;;;;;;;9.75;60.75;98429.84;4954615;28;7185;-75
2021/12/04 14:43:39;;;;;;;;;;;;;;;9.70;60.74;98431.47;4971455;28;6820;-75
2021/12/04 14:46:11;;;;;;;;;;;;;;;9.67;61.18;98442.50;4974564;28;7256;-75
2021/12/04 14:48:48;;;;;;;;;;;;;;;9.66;60.88;98439.94;4952936;28;7289;-76
2021/12/04 14:51:20;;;;;;;;;;;;;;;9.65;60.88;98438.16;4966241;28;7169;-75
2021/12/04 14:53:56;;;;;;;;;;;;;;;9.65;61.45;98448.41;4969208;28;6845;-75
2021/12/04 14:56:27;;;;;;;;;;;;;;;9.67;60.68;98441.66;4969163;28;6972;-75
2021/12/04 14:58:53;;;;;;;;;;;;;;;9.66;60.87;98447.59;4969603;28;6985;-75
2021/12/04 15:01:24;;;;;;;;;;;;;;;9.68;62.08;98463.84;4951280;28;6839;-75
2021/12/04 15:04:01;;;;;;;;;;;;;;;9.67;61.72;98457.00;4968839;28;7188;-75
2021/12/04 15:06:32;;;;;;;;;;;;;;;9.69;61.05;98465.56;4984417;28;6823;-75
2021/12/04 15:09:04;;;;;;;;;;;;;;;9.69;62.10;98473.22;4971492;28;6984;-74
2021/12/04 15:11:34;;;;;;;;;;;;;;;9.68;61.33;98474.91;4975176;28;6966;-74
2021/12/04 15:14:10;;;;;;;;;;;;;;;9.69;61.29;98480.91;4967692;28;6828;-75
2021/12/04 15:16:48;;;;;;;;;;;;;;;9.69;61.13;98488.56;4975458;28;6907;-75
2021/12/04 15:19:27;;;;;;;;;;;;;;;9.68;61.24;98484.28;4970336;28;7304;-75
2021/12/04 15:22:00;;;;;;;;;;;;;;;9.67;61.62;98492.81;4952424;28;7059;-75
2021/12/04 15:24:34;;;;;;;;;;;;;;;9.67;61.73;98497.91;4970241;28;7230;-75
2021/12/04 15:27:14;;;;;;;;;;;;;;;9.69;62.02;98506.47;4971379;28;7250;-75
2021/12/04 15:29:40;;;;;;;;;;;;;;;9.68;61.47;98515.00;4955161;28;7005;-75
2021/12/04 15:32:12;;;;;;;;;;;;;;;9.70;61.58;98521.84;4967464;28;7382;-75
2021/12/04 15:34:53;;;;;;;;;;;;;;;9.72;62.23;98516.78;4968437;28;7199;-75
2021/12/04 15:37:38;;;;;;;;;;;;;;;9.73;61.38;98526.16;4958439;28;7119;-75
2021/12/04 15:40:34;;;;;;;;;;;;;;;9.74;61.38;98535.56;4957934;28;7291;-75
2021/12/04 15:43:20;;;;;;;;;;;;;;;9.75;62.06;98531.34;4967946;28;6812;-75
2021/12/04 15:53:28;;;;;;;;;;;;;;;9.79;62.21;98551.91;4971737;28;6820;-75
2021/12/04 15:55:56;;;;;;;;;;;;;;;9.79;61.68;98545.91;4974033;28;6792;-75
2021/12/04 15:58:33;;;;;;;;;;;;;;;9.79;62.48;98548.47;4958627;28;7075;-75
2021/12/04 16:01:09;;;;;;;;;;;;;;;9.79;62.24;98556.13;4978906;28;6816;-75
2021/12/04 16:03:41;;;;;;;;;;;;;;;9.80;62.25;98561.28;4977209;28;6804;-75
2021/12/04 16:06:11;;;;;;;;;;;;;;;9.80;61.66;98565.53;4975502;28;7232;-75
2021/12/04 16:08:41;;;;;;;;;;;;;;;9.81;62.31;98568.13;4960519;28;8079;-75
2021/12/04 16:11:10;;;;;;;;;;;;;;;9.84;62.71;98580.16;4977767;28;6819;-75
2021/12/04 16:13:38;;;;;;;;;;;;;;;9.85;61.56;98575.06;4975056;28;7366;-75
2021/12/04 16:16:38;;;;;;;;;;;;;;;9.86;62.48;98584.47;4983756;28;7005;-75
2021/12/04 16:19:04;;;;;;;;;;;;;;;9.87;62.11;98587.88;4984665;28;7137;-75
2021/12/04 16:21:32;;;;;;;;;;;;;;;9.90;62.10;98594.75;4976699;28;7260;-75
2021/12/04 16:23:58;;;;;;;;;;;;;;;9.89;62.45;98601.56;4967219;28;6979;-75
2021/12/04 16:26:28;;;;;;;;;;;;;;;9.91;62.51;98611.84;4977307;28;7264;-75
2021/12/04 16:37:30;;;;;;;;;;;;;;;9.92;62.15;98622.13;4979589;28;6779;-75
2021/12/04 16:39:56;;;;;;;;;;;;;;;9.92;62.57;98629.81;4965333;28;7013;-75
2021/12/04 16:42:22;;;;;;;;;;;;;;;9.93;61.94;98622.97;4977259;28;6979;-75
2021/12/04 16:44:48;;;;;;;;;;;;;;;9.92;62.09;98623.81;4979711;28;7182;-75
2021/12/04 16:47:14;;;;;;;;;;;;;;;9.93;62.70;98630.66;4978193;28;6885;-75
2021/12/04 16:49:40;;;;;;;;;;;;;;;9.92;61.61;98622.13;4947334;28;7027;-75
2021/12/04 16:57:36;;;;;;;;;;;;;;;9.91;62.81;98637.44;4979195;28;7223;-75
2021/12/04 17:00:07;;;;;;;;;;;;;;;9.91;62.17;98632.31;4962026;28;7220;-75